createdAt,value
2019-03-25T00:00:22.057Z,11.48
2019-03-25T00:05:31.076Z,10.53
2019-03-25T00:10:40.710Z,9.08
2019-03-25T00:15:49.074Z,10.95
2019-03-25T00:20:58.446Z,11.87
2019-03-25T00:26:06.851Z,10.78
2019-03-25T00:31:15.362Z,9.93
2019-03-25T00:36:23.969Z,10.05
2019-03-25T00:41:32.387Z,9.85
2019-03-25T00:46:40.629Z,10.49
2019-03-25T00:51:48.909Z,14.06
2019-03-25T00:56:57.286Z,12.77
2019-03-25T01:02:05.823Z,11.62
2019-03-25T01:07:14.210Z,12.95
2019-03-25T01:12:22.520Z,12.43
2019-03-25T01:17:31.459Z,12.07
2019-03-25T01:22:39.902Z,15.23
2019-03-25T01:27:48.606Z,12.16
2019-03-25T01:32:57.402Z,11.47
2019-03-25T01:38:05.737Z,10.26
2019-03-25T01:43:14.119Z,10.60
2019-03-25T01:48:22.469Z,10.89
2019-03-25T01:53:30.937Z,13.67
2019-03-25T01:58:39.127Z,12.22
2019-03-25T02:03:47.458Z,11.44
2019-03-25T02:08:56.099Z,10.78
2019-03-25T02:14:04.567Z,9.57
2019-03-25T02:19:13.956Z,7.39
2019-03-25T02:24:22.263Z,6.36
2019-03-25T02:29:30.624Z,4.57
2019-03-25T02:34:38.920Z,5.89
2019-03-25T02:39:47.347Z,4.90
2019-03-25T02:44:55.753Z,6.18
2019-03-25T02:50:04.212Z,5.38
2019-03-25T02:55:12.608Z,4.93
2019-03-25T03:00:21.392Z,4.20
2019-03-25T03:05:30.151Z,5.52
2019-03-25T03:10:38.566Z,3.55
2019-03-25T03:15:46.899Z,5.18
2019-03-25T03:20:55.266Z,3.81
2019-03-25T03:26:03.738Z,3.72
2019-03-25T03:31:11.990Z,4.32
2019-03-25T03:36:20.740Z,4.68
2019-03-25T03:41:28.942Z,3.60
2019-03-25T03:46:37.417Z,4.03
2019-03-25T03:51:45.917Z,3.17
2019-03-25T03:56:54.549Z,3.06
2019-03-25T04:02:02.825Z,3.48
2019-03-25T04:07:11.543Z,4.62
2019-03-25T04:12:19.755Z,4.53
2019-03-25T04:17:28.059Z,3.74
2019-03-25T04:22:36.282Z,3.59
2019-03-25T04:27:44.715Z,3.32
2019-03-25T04:32:53.058Z,3.14
2019-03-25T04:38:01.351Z,3.11
2019-03-25T04:43:09.525Z,5.15
2019-03-25T04:48:17.742Z,4.33
2019-03-25T04:53:25.844Z,3.79
2019-03-25T04:58:34.143Z,4.63
2019-03-25T05:03:42.371Z,5.77
2019-03-25T05:08:50.525Z,6.13
2019-03-25T05:13:58.755Z,5.98
2019-03-25T05:19:07.151Z,6.39
2019-03-25T05:24:15.726Z,5.86
2019-03-25T05:29:24.138Z,6.08
2019-03-25T05:34:32.290Z,5.23
2019-03-25T05:39:41.180Z,5.16
2019-03-25T05:44:49.432Z,5.41
2019-03-25T05:49:57.756Z,6.74
2019-03-25T05:55:06.131Z,5.68
2019-03-25T06:00:14.382Z,4.52
2019-03-25T06:05:23.312Z,5.47
2019-03-25T06:10:31.931Z,7.22
2019-03-25T06:15:40.186Z,4.99
2019-03-25T06:20:48.525Z,4.96
2019-03-25T06:25:56.846Z,4.94
2019-03-25T06:31:05.183Z,4.87
2019-03-25T06:36:13.409Z,5.79
2019-03-25T06:41:21.897Z,6.09
2019-03-25T06:46:31.147Z,6.18
2019-03-25T06:51:39.479Z,6.00
2019-03-25T06:56:47.823Z,4.68
2019-03-25T07:01:56.128Z,4.51
2019-03-25T07:07:04.837Z,4.61
2019-03-25T07:12:13.126Z,9.79
2019-03-25T07:17:21.530Z,14.76
2019-03-25T07:22:29.838Z,5.96
2019-03-25T07:27:38.102Z,5.76
2019-03-25T07:32:46.401Z,5.84
2019-03-25T07:37:54.779Z,6.82
2019-03-25T07:43:03.247Z,5.97
2019-03-25T07:48:11.475Z,22.54
2019-03-25T07:53:19.726Z,18.59
2019-03-25T07:58:28.252Z,13.03
2019-03-25T08:03:36.431Z,10.71
2019-03-25T08:08:44.762Z,5.38
2019-03-25T08:13:53.110Z,5.04
2019-03-25T08:19:01.272Z,4.43
2019-03-25T08:24:09.630Z,3.14
2019-03-25T08:29:18.010Z,5.13
2019-03-25T08:34:26.197Z,4.26
2019-03-25T08:39:34.717Z,5.98
2019-03-25T08:44:43.164Z,5.76
2019-03-25T08:49:51.516Z,4.60
2019-03-25T08:54:59.741Z,5.30
2019-03-25T09:00:08.065Z,4.69
2019-03-25T09:05:16.410Z,5.32
2019-03-25T09:10:24.833Z,3.87
2019-03-25T09:15:33.086Z,2.69
2019-03-25T09:20:41.330Z,2.79
2019-03-25T09:25:50.946Z,3.39
2019-03-25T09:30:59.228Z,10.06
2019-03-25T09:36:07.530Z,2.77
2019-03-25T09:41:15.765Z,3.08
2019-03-25T09:46:24.168Z,4.29
2019-03-25T09:51:32.398Z,3.19
2019-03-25T09:56:40.970Z,3.06
2019-03-25T10:01:49.157Z,4.13
2019-03-25T10:06:57.450Z,3.46
2019-03-25T10:12:05.723Z,3.66
2019-03-25T10:17:14.319Z,3.31
2019-03-25T10:22:22.682Z,4.18
2019-03-25T10:27:31.264Z,3.87
2019-03-25T10:32:39.598Z,3.22
2019-03-25T10:37:47.890Z,3.47
2019-03-25T10:42:54.552Z,5.21
2019-03-25T10:48:06.839Z,3.79
2019-03-25T10:53:05.134Z,4.19
2019-03-25T10:58:13.421Z,6.17
2019-03-25T11:03:21.789Z,6.72
2019-03-25T11:08:30.183Z,6.82
2019-03-25T11:13:38.522Z,4.22
2019-03-25T11:18:46.930Z,2.47
2019-03-25T11:23:55.172Z,4.40
2019-03-25T11:29:08.427Z,4.77
2019-03-25T11:34:11.289Z,5.78
2019-03-25T11:39:19.610Z,5.76
2019-03-25T11:44:29.062Z,6.19
2019-03-25T11:49:35.957Z,6.05
2019-03-25T11:54:44.248Z,6.89
2019-03-25T11:59:52.553Z,5.08
2019-03-25T12:05:00.876Z,3.93
2019-03-25T12:10:09.405Z,7.00
2019-03-25T12:15:17.584Z,6.48
2019-03-25T12:20:26.169Z,5.24
2019-03-25T12:25:34.549Z,12.35
2019-03-25T12:30:42.761Z,7.05
2019-03-25T12:35:51.043Z,6.31
2019-03-25T12:40:59.106Z,6.58
2019-03-25T12:46:07.292Z,5.47
2019-03-25T12:51:15.655Z,4.53
2019-03-25T12:56:23.977Z,5.84
2019-03-25T13:01:32.879Z,4.96
2019-03-25T13:06:41.346Z,6.33
2019-03-25T13:11:49.637Z,7.33
2019-03-25T13:16:57.989Z,6.02
2019-03-25T13:22:06.217Z,6.70
2019-03-25T13:27:14.421Z,7.02
2019-03-25T13:32:22.715Z,8.90
2019-03-25T13:37:31.025Z,5.46
2019-03-25T13:42:39.412Z,3.93
2019-03-25T13:47:47.989Z,5.52
2019-03-25T13:52:56.335Z,4.83
2019-03-25T13:58:04.550Z,4.66
2019-03-25T14:03:12.886Z,4.79
2019-03-25T14:08:21.181Z,5.87
2019-03-25T14:13:29.566Z,4.87
2019-03-25T14:18:37.946Z,5.03
2019-03-25T14:23:46.283Z,4.15
2019-03-25T14:28:54.601Z,5.23
2019-03-25T14:34:02.857Z,4.42
2019-03-25T14:39:11.158Z,5.58
2019-03-25T14:44:19.393Z,2.72
2019-03-25T14:49:27.819Z,4.56
2019-03-25T14:54:36.015Z,3.41
2019-03-25T14:59:44.665Z,4.63
2019-03-25T15:04:52.813Z,4.68
2019-03-25T15:10:01.025Z,4.58
2019-03-25T15:15:09.195Z,5.53
2019-03-25T15:20:17.786Z,4.97
2019-03-25T15:25:25.997Z,5.49
2019-03-25T15:30:36.255Z,9.01
2019-03-25T15:35:42.199Z,5.94
2019-03-25T15:40:50.533Z,5.97
2019-03-25T15:45:59.166Z,5.55
2019-03-25T15:51:08.038Z,3.70
2019-03-25T15:56:19.145Z,4.30
2019-03-25T16:01:17.461Z,5.05
2019-03-25T16:06:25.585Z,4.91
2019-03-25T16:11:33.950Z,4.11
2019-03-25T16:16:42.406Z,5.64
2019-03-25T16:21:50.526Z,5.00
2019-03-25T16:26:58.846Z,4.62
2019-03-25T16:32:07.147Z,5.17
2019-03-25T16:37:15.350Z,4.68
2019-03-25T16:42:23.669Z,4.07
2019-03-25T16:47:31.821Z,4.30
2019-03-25T16:52:40.030Z,5.97
2019-03-25T16:57:48.240Z,4.03
2019-03-25T17:02:56.483Z,3.53
2019-03-25T17:08:04.847Z,5.14
2019-03-25T17:13:13.025Z,4.36
2019-03-25T17:18:21.169Z,4.91
2019-03-25T17:23:29.278Z,4.90
2019-03-25T17:28:37.502Z,4.98
2019-03-25T17:33:45.676Z,8.56
2019-03-25T17:38:54.030Z,6.14
2019-03-25T17:43:54.549Z,5.77
2019-03-25T17:49:02.933Z,5.11
2019-03-25T17:54:11.295Z,5.19
2019-03-25T17:59:19.576Z,4.56
2019-03-25T18:04:27.880Z,4.73
2019-03-25T18:09:36.149Z,3.68
2019-03-25T18:14:44.442Z,6.10
2019-03-25T18:19:52.754Z,5.66
2019-03-25T18:25:00.922Z,6.81
2019-03-25T18:30:09.128Z,4.88
2019-03-25T18:35:17.500Z,5.68
2019-03-25T18:40:25.836Z,6.57
2019-03-25T18:45:33.969Z,4.94
2019-03-25T18:50:42.530Z,4.56
2019-03-25T18:55:51.298Z,6.85
2019-03-25T19:01:00.031Z,7.20
2019-03-25T19:06:08.250Z,6.60
2019-03-25T19:11:16.516Z,5.41
2019-03-25T19:16:24.782Z,5.53
2019-03-25T19:21:33.356Z,7.91
2019-03-25T19:26:42.046Z,6.69
2019-03-25T19:31:50.231Z,7.04
2019-03-25T19:36:58.444Z,6.97
2019-03-25T19:42:06.991Z,6.99
2019-03-25T19:47:15.215Z,6.14
2019-03-25T19:52:23.423Z,6.99
2019-03-25T19:57:31.879Z,5.72
2019-03-25T20:02:40.206Z,5.86
2019-03-25T20:07:48.370Z,4.80
2019-03-25T20:12:56.536Z,6.20
2019-03-25T20:18:04.813Z,5.50
2019-03-25T20:23:13.036Z,5.62
2019-03-25T20:28:21.157Z,5.42
2019-03-25T20:33:29.336Z,5.86
2019-03-25T20:38:38.402Z,9.85
2019-03-25T20:43:46.814Z,6.86
2019-03-25T20:48:55.226Z,6.90
2019-03-25T20:54:03.564Z,6.19
2019-03-25T20:59:11.965Z,5.48
2019-03-25T21:04:20.815Z,6.36
2019-03-25T21:09:28.960Z,5.89
2019-03-25T21:14:37.269Z,6.78
2019-03-25T21:19:45.828Z,5.69
2019-03-25T21:24:54.826Z,5.48
2019-03-25T21:30:03.157Z,5.04
2019-03-25T21:35:11.512Z,5.34
2019-03-25T21:40:19.660Z,6.31
2019-03-25T21:45:42.529Z,5.53
2019-03-25T21:50:30.864Z,5.19
2019-03-25T21:55:39.058Z,9.07
2019-03-25T22:00:47.707Z,6.56
2019-03-25T22:05:56.098Z,8.03
2019-03-25T22:11:04.380Z,7.49
2019-03-25T22:16:12.607Z,10.29
2019-03-25T22:21:20.771Z,9.87
2019-03-25T22:26:29.042Z,10.76
2019-03-25T22:31:37.252Z,11.18
2019-03-25T22:36:45.527Z,11.97
2019-03-25T22:41:53.802Z,11.81
2019-03-25T22:47:02.346Z,10.88
2019-03-25T22:52:10.581Z,13.58
2019-03-25T22:57:18.818Z,11.51
2019-03-25T23:02:27.106Z,12.57
2019-03-25T23:07:35.530Z,11.36
2019-03-25T23:12:43.996Z,13.30
2019-03-25T23:17:52.470Z,12.66
2019-03-25T23:23:00.910Z,14.17
2019-03-25T23:28:09.209Z,10.07
2019-03-25T23:33:17.448Z,14.88
2019-03-25T23:38:25.665Z,9.87
2019-03-25T23:43:33.903Z,12.49
2019-03-25T23:48:40.541Z,14.56
2019-03-25T23:53:48.748Z,12.33
2019-03-25T23:58:56.977Z,14.41
